createdAt,value
2022-09-11T00:01:18.582Z,100790.50
2022-09-11T00:08:21.204Z,100794.72
2022-09-11T00:15:22.860Z,100796.25
2022-09-11T00:22:24.420Z,100794.78
2022-09-11T00:29:26.091Z,100801.72
2022-09-11T00:36:29.149Z,100796.69
2022-09-11T00:43:59.607Z,100791.88
2022-09-11T00:51:01.511Z,100790.41
2022-09-11T00:58:08.011Z,100787.94
2022-09-11T01:05:09.692Z,100801.41
2022-09-11T01:12:28.370Z,100804.00
2022-09-11T01:19:46.830Z,100801.41
2022-09-11T01:27:21.767Z,100810.84
2022-09-11T01:34:29.670Z,100807.75
2022-09-11T01:41:45.967Z,100818.03
2022-09-11T01:48:49.037Z,100815.69
2022-09-11T01:55:57.099Z,100817.78
2022-09-11T02:03:00.870Z,100820.03
2022-09-11T02:10:14.577Z,100815.91
2022-09-11T02:17:40.735Z,100816.53
2022-09-11T02:24:42.339Z,100818.28
2022-09-11T02:31:44.067Z,100820.75
2022-09-11T02:39:04.573Z,100823.34
2022-09-11T02:46:16.685Z,100831.88
2022-09-11T02:53:30.976Z,100842.88
2022-09-11T03:00:32.985Z,100852.25
2022-09-11T03:07:35.563Z,100859.06
2022-09-11T03:14:38.100Z,100844.69
2022-09-11T03:21:40.392Z,100848.63
2022-09-11T03:28:42.413Z,100862.00
2022-09-11T03:35:44.748Z,100869.13
2022-09-11T03:42:46.723Z,100875.69
2022-09-11T03:49:48.591Z,100886.03
2022-09-11T03:56:51.027Z,100908.97
2022-09-11T04:03:52.734Z,100910.75
2022-09-11T04:11:11.495Z,100924.41
2022-09-11T04:18:13.938Z,100924.88
2022-09-11T04:25:15.990Z,100911.41
2022-09-11T04:32:18.305Z,100920.53
2022-09-11T04:39:19.986Z,100923.34
2022-09-11T04:46:24.189Z,100920.53
2022-09-11T04:53:25.975Z,100929.56
2022-09-11T05:00:28.115Z,100933.13
2022-09-11T05:07:31.992Z,100932.16
2022-09-11T05:14:35.798Z,100927.47
2022-09-11T05:21:38.276Z,100933.31
2022-09-11T05:28:40.212Z,100946.44
2022-09-11T05:35:42.002Z,100952.16
2022-09-11T05:42:43.641Z,100961.16
2022-09-11T05:49:46.101Z,100971.03
2022-09-11T05:56:47.723Z,101002.97
2022-09-11T06:03:57.760Z,101009.19
2022-09-11T06:11:02.084Z,101013.28
2022-09-11T06:18:07.153Z,101020.50
2022-09-11T06:25:09.144Z,101026.97
2022-09-11T06:32:11.672Z,101028.00
2022-09-11T06:39:14.683Z,101044.19
2022-09-11T06:46:19.991Z,101044.38
2022-09-11T06:53:22.545Z,101039.44
2022-09-11T07:00:28.599Z,101041.44
2022-09-11T07:07:30.722Z,101045.91
2022-09-11T07:14:32.910Z,101050.13
2022-09-11T07:21:44.292Z,101052.09
2022-09-11T07:28:48.789Z,101051.88
2022-09-11T07:35:52.305Z,101044.38
2022-09-11T07:42:54.265Z,101037.00
2022-09-11T07:49:56.820Z,101043.59
2022-09-11T07:56:59.519Z,101056.59
2022-09-11T08:04:06.101Z,101059.06
2022-09-11T08:11:17.195Z,101061.16
2022-09-11T08:18:21.081Z,101069.13
2022-09-11T08:25:23.796Z,101077.13
2022-09-11T08:32:25.763Z,101084.19
2022-09-11T08:39:27.533Z,101093.75
2022-09-11T08:46:40.630Z,101097.53
2022-09-11T08:53:43.242Z,101094.63
2022-09-11T09:00:59.605Z,101100.16
2022-09-11T09:08:04.901Z,101107.91
2022-09-11T09:15:42.335Z,101102.66
2022-09-11T09:22:55.634Z,101107.25
2022-09-11T09:30:00.151Z,101107.53
2022-09-11T09:37:05.370Z,101115.44
2022-09-11T09:44:19.631Z,101117.56
2022-09-11T09:51:21.459Z,101118.22
2022-09-11T09:58:29.798Z,101118.41
2022-09-11T10:05:33.090Z,101120.00
2022-09-11T10:12:35.900Z,101126.16
2022-09-11T10:19:38.922Z,101136.28
2022-09-11T10:26:50.533Z,101127.22
2022-09-11T10:33:57.011Z,101127.97
2022-09-11T10:41:14.182Z,101123.28
2022-09-11T10:48:17.267Z,101129.78
2022-09-11T10:55:19.275Z,101148.59
2022-09-11T11:02:31.714Z,101151.91
2022-09-11T11:09:42.583Z,101154.06
2022-09-11T11:17:02.917Z,101140.59
2022-09-11T11:24:55.821Z,101151.72
2022-09-11T11:32:37.134Z,101133.81
2022-09-11T11:40:00.606Z,101124.69
2022-09-11T11:47:02.422Z,101117.22
2022-09-11T11:54:07.233Z,101112.25
2022-09-11T12:01:14.423Z,101128.59
2022-09-11T12:08:16.612Z,101127.78
2022-09-11T12:15:22.654Z,101134.13
2022-09-11T12:22:33.037Z,101132.03
2022-09-11T12:29:43.552Z,101133.91
2022-09-11T12:36:49.966Z,101143.38
2022-09-11T12:43:51.589Z,101146.91
2022-09-11T12:50:54.258Z,101143.00
2022-09-11T12:57:57.033Z,101148.34
2022-09-11T13:04:58.694Z,101145.69
2022-09-11T13:12:21.486Z,101146.53
2022-09-11T13:19:23.511Z,101131.06
2022-09-11T13:26:26.320Z,101133.16
2022-09-11T13:33:28.999Z,101126.75
2022-09-11T13:40:54.751Z,101136.84
2022-09-11T13:47:58.298Z,101141.03
2022-09-11T13:55:01.603Z,101141.44
2022-09-11T14:02:16.645Z,101152.53
2022-09-11T14:09:18.663Z,101153.00
2022-09-11T14:16:23.985Z,101132.19
2022-09-11T14:23:29.981Z,101133.59
2022-09-11T14:30:37.380Z,101121.03
2022-09-11T14:37:45.579Z,101122.03
2022-09-11T14:44:47.692Z,101117.50
2022-09-11T14:51:58.204Z,101113.09
2022-09-11T14:58:59.854Z,101116.66
2022-09-11T15:06:01.427Z,101122.41
2022-09-11T15:13:03.091Z,101129.81
2022-09-11T15:20:09.031Z,101153.97
2022-09-11T15:27:10.924Z,101160.22
2022-09-11T15:34:12.675Z,101147.66
2022-09-11T15:41:14.281Z,101142.09
2022-09-11T15:48:17.016Z,101142.59
2022-09-11T15:55:18.616Z,101156.63
2022-09-11T16:02:21.537Z,101154.78
2022-09-11T16:09:27.836Z,101163.47
2022-09-11T16:16:29.397Z,101163.31
2022-09-11T16:23:31.028Z,101150.47
2022-09-11T16:30:43.310Z,101158.09
2022-09-11T16:37:45.996Z,101159.78
2022-09-11T16:44:48.160Z,101156.03
2022-09-11T16:51:49.997Z,101153.00
2022-09-11T16:58:51.767Z,101153.44
2022-09-11T17:05:54.550Z,101158.16
2022-09-11T17:12:56.122Z,101164.59
2022-09-11T17:19:59.325Z,101166.97
2022-09-11T17:27:01.730Z,101175.28
2022-09-11T17:34:03.300Z,101183.91
2022-09-11T17:41:06.171Z,101183.59
2022-09-11T17:48:08.662Z,101187.38
2022-09-11T17:55:11.080Z,101188.03
2022-09-11T18:02:14.337Z,101187.50
2022-09-11T18:09:16.206Z,101175.88
2022-09-11T18:16:17.866Z,101187.59
2022-09-11T18:23:20.200Z,101183.53
2022-09-11T18:30:21.753Z,101189.91
2022-09-11T18:37:23.387Z,101187.06
2022-09-11T18:44:25.126Z,101204.38
2022-09-11T18:51:27.041Z,101198.50
2022-09-11T18:58:33.469Z,101203.09
2022-09-11T19:05:35.053Z,101204.84
2022-09-11T19:12:36.799Z,101211.03
2022-09-11T19:19:38.337Z,101216.75
2022-09-11T19:26:42.261Z,101215.53
2022-09-11T19:33:46.562Z,101239.09
2022-09-11T19:40:48.877Z,101238.31
2022-09-11T19:47:50.821Z,101248.13
2022-09-11T19:54:52.469Z,101248.50
2022-09-11T20:01:54.247Z,101255.41
2022-09-11T20:09:19.867Z,101260.72
2022-09-11T20:16:20.107Z,101257.47
2022-09-11T20:23:21.691Z,101251.41
2022-09-11T20:30:24.985Z,101259.56
2022-09-11T20:37:26.525Z,101264.00
2022-09-11T20:44:28.067Z,101262.72
2022-09-11T20:51:29.657Z,101264.06
2022-09-11T20:58:31.295Z,101262.91
2022-09-11T21:05:32.848Z,101263.47
2022-09-11T21:12:34.422Z,101267.31
2022-09-11T21:19:36.022Z,101262.56
2022-09-11T21:26:37.694Z,101267.47
2022-09-11T21:33:39.349Z,101271.31
2022-09-11T21:40:40.895Z,101269.47
2022-09-11T21:47:42.527Z,101268.72
2022-09-11T21:54:44.076Z,101264.59
2022-09-11T22:01:45.700Z,101263.19
2022-09-11T22:08:47.371Z,101266.28
2022-09-11T22:15:49.756Z,101260.91
2022-09-11T22:22:56.367Z,101256.47
2022-09-11T22:29:57.909Z,101272.16
2022-09-11T22:36:59.833Z,101275.72
2022-09-11T22:44:01.514Z,101266.59
2022-09-11T22:51:03.099Z,101267.44
2022-09-11T22:58:04.643Z,101269.44
2022-09-11T23:05:25.479Z,101256.69
2022-09-11T23:12:27.043Z,101260.16
2022-09-11T23:19:29.419Z,101257.38
2022-09-11T23:26:31.014Z,101262.72
2022-09-11T23:33:32.576Z,101266.38
2022-09-11T23:40:34.416Z,101257.16
2022-09-11T23:47:35.973Z,101258.91
2022-09-11T23:54:37.577Z,101258.72
